createdAt,value
2019-02-20T00:00:27.086Z,6.89
2019-02-20T00:02:57.450Z,6.78
2019-02-20T00:05:27.938Z,6.79
2019-02-20T00:07:58.482Z,6.78
2019-02-20T00:10:29.014Z,6.80
2019-02-20T00:12:59.488Z,6.76
2019-02-20T00:15:30.007Z,6.69
2019-02-20T00:18:00.475Z,6.82
2019-02-20T00:20:30.937Z,6.84
2019-02-20T00:23:01.422Z,6.83
2019-02-20T00:25:31.909Z,6.83
2019-02-20T00:28:02.374Z,6.80
2019-02-20T00:30:32.901Z,6.79
2019-02-20T00:33:03.737Z,6.80
2019-02-20T00:35:34.192Z,6.83
2019-02-20T00:38:04.694Z,6.80
2019-02-20T00:40:35.114Z,6.73
2019-02-20T00:43:05.582Z,6.73
2019-02-20T00:45:45.464Z,6.76
2019-02-20T00:48:23.062Z,6.84
2019-02-20T00:50:58.590Z,6.74
2019-02-20T00:53:36.536Z,6.76
2019-02-20T00:56:07.041Z,6.78
2019-02-20T00:58:37.601Z,6.79
2019-02-20T01:01:08.063Z,6.78
2019-02-20T01:03:38.550Z,6.72
2019-02-20T01:06:08.999Z,6.72
2019-02-20T01:08:39.517Z,6.67
2019-02-20T01:11:09.990Z,6.68
2019-02-20T01:13:40.449Z,6.72
2019-02-20T01:16:10.894Z,6.69
2019-02-20T01:18:41.461Z,6.70
2019-02-20T01:21:11.936Z,6.72
2019-02-20T01:23:42.487Z,6.62
2019-02-20T01:26:12.971Z,6.63
2019-02-20T01:28:43.432Z,6.65
2019-02-20T01:31:13.932Z,6.62
2019-02-20T01:33:44.651Z,6.63
2019-02-20T01:36:15.117Z,6.70
2019-02-20T01:38:45.577Z,6.72
2019-02-20T01:41:15.999Z,6.68
2019-02-20T01:43:46.486Z,6.68
2019-02-20T01:46:16.961Z,6.63
2019-02-20T01:48:47.553Z,6.64
2019-02-20T01:51:18.039Z,6.72
2019-02-20T01:53:48.398Z,6.65
2019-02-20T01:56:18.901Z,6.65
2019-02-20T01:58:49.392Z,6.68
2019-02-20T02:01:19.839Z,6.76
2019-02-20T02:03:50.337Z,6.74
2019-02-20T02:06:20.843Z,6.78
2019-02-20T02:08:51.342Z,6.67
2019-02-20T02:11:21.822Z,6.79
2019-02-20T02:13:52.199Z,6.74
2019-02-20T02:16:22.662Z,6.72
2019-02-20T02:18:53.111Z,6.77
2019-02-20T02:21:23.628Z,6.71
2019-02-20T02:23:54.098Z,6.66
2019-02-20T02:26:24.620Z,6.71
2019-02-20T02:28:55.129Z,6.69
2019-02-20T02:31:25.600Z,6.67
2019-02-20T02:33:56.181Z,6.69
2019-02-20T02:36:26.598Z,6.61
2019-02-20T02:38:57.046Z,6.71
2019-02-20T02:41:27.517Z,6.69
2019-02-20T02:43:58.010Z,6.72
2019-02-20T02:46:28.457Z,6.66
2019-02-20T02:48:58.962Z,6.59
2019-02-20T02:51:29.436Z,6.61
2019-02-20T02:53:59.889Z,6.60
2019-02-20T02:56:30.313Z,6.63
2019-02-20T02:59:00.819Z,6.62
2019-02-20T03:01:31.231Z,6.63
2019-02-20T03:04:01.698Z,6.53
2019-02-20T03:06:32.177Z,6.53
2019-02-20T03:09:03.043Z,6.51
2019-02-20T03:11:33.657Z,6.53
2019-02-20T03:14:04.124Z,6.54
2019-02-20T03:16:34.616Z,6.55
2019-02-20T03:19:05.144Z,6.52
2019-02-20T03:21:35.637Z,6.52
2019-02-20T03:24:06.298Z,6.49
2019-02-20T03:26:36.798Z,6.54
2019-02-20T03:29:07.217Z,6.53
2019-02-20T03:31:37.719Z,6.57
2019-02-20T03:34:09.074Z,6.54
2019-02-20T03:36:39.801Z,6.59
2019-02-20T03:39:10.292Z,6.53
2019-02-20T03:41:40.746Z,6.55
2019-02-20T03:44:11.248Z,6.58
2019-02-20T03:46:41.679Z,6.55
2019-02-20T03:49:12.177Z,6.47
2019-02-20T03:51:42.675Z,6.47
2019-02-20T03:54:13.240Z,6.49
2019-02-20T03:56:43.750Z,6.46
2019-02-20T03:59:14.246Z,6.51
2019-02-20T04:01:44.761Z,6.51
2019-02-20T04:04:15.374Z,6.48
2019-02-20T05:01:23.220Z,6.26
2019-02-20T05:03:53.712Z,6.19
2019-02-20T05:06:24.265Z,6.22
2019-02-20T05:08:54.814Z,6.20
2019-02-20T05:11:25.521Z,6.20
2019-02-20T05:13:56.123Z,6.24
2019-02-20T05:16:26.742Z,6.28
2019-02-20T05:18:57.366Z,6.23
2019-02-20T05:21:27.909Z,6.26
2019-02-20T05:23:58.620Z,6.31
2019-02-20T05:26:29.132Z,6.32
2019-02-20T05:28:59.609Z,6.30
2019-02-20T05:31:30.266Z,6.29
2019-02-20T05:34:01.123Z,6.33
2019-02-20T05:36:31.632Z,6.28
2019-02-20T05:39:02.355Z,6.26
2019-02-20T05:41:32.848Z,6.23
2019-02-20T05:44:03.323Z,6.22
2019-02-20T05:46:33.910Z,6.16
2019-02-20T05:49:04.441Z,6.17
2019-02-20T05:51:34.923Z,6.11
2019-02-20T05:54:05.528Z,6.15
2019-02-20T05:56:36.097Z,6.14
2019-02-20T05:59:06.630Z,6.14
2019-02-20T06:01:37.144Z,6.18
2019-02-20T06:04:07.691Z,6.17
2019-02-20T06:06:38.149Z,6.21
2019-02-20T06:09:08.833Z,6.15
2019-02-20T06:11:39.483Z,6.15
2019-02-20T06:14:10.033Z,6.20
2019-02-20T06:16:40.620Z,6.23
2019-02-20T06:19:11.199Z,6.22
2019-02-20T06:21:41.589Z,6.15
2019-02-20T06:24:12.134Z,6.16
2019-02-20T06:26:42.630Z,6.14
2019-02-20T06:29:13.207Z,6.19
2019-02-20T06:31:43.816Z,6.21
2019-02-20T06:34:14.432Z,6.17
2019-02-20T06:36:45.019Z,6.12
2019-02-20T06:39:15.948Z,6.25
2019-02-20T06:41:48.873Z,6.24
2019-02-20T06:44:19.488Z,6.16
2019-02-20T06:46:49.973Z,6.11
2019-02-20T06:49:20.498Z,6.15
2019-02-20T06:51:51.096Z,6.20
2019-02-20T06:54:21.609Z,6.20
2019-02-20T06:56:52.105Z,6.20
2019-02-20T06:59:22.696Z,6.22
2019-02-20T07:01:53.175Z,6.19
2019-02-20T07:04:23.658Z,6.20
2019-02-20T07:07:58.348Z,6.16
2019-02-20T07:11:09.647Z,6.20
2019-02-20T07:14:09.369Z,6.22
2019-02-20T07:17:30.550Z,6.20
2019-02-20T07:20:50.203Z,6.20
2019-02-20T07:23:43.687Z,6.22
2019-02-20T07:27:05.298Z,6.26
2019-02-20T07:30:05.077Z,6.30
2019-02-20T07:32:35.690Z,6.31
2019-02-20T07:35:08.055Z,6.39
2019-02-20T07:37:38.590Z,6.33
2019-02-20T07:40:12.330Z,6.30
2019-02-20T07:42:42.835Z,6.45
2019-02-20T07:45:15.584Z,6.45
2019-02-20T07:47:46.067Z,6.39
2019-02-20T07:50:20.368Z,6.44
2019-02-20T07:52:52.220Z,6.41
2019-02-20T07:55:22.717Z,6.47
2019-02-20T07:57:53.318Z,6.53
2019-02-20T08:00:23.885Z,6.57
2019-02-20T08:02:54.408Z,6.57
2019-02-20T08:05:24.938Z,6.66
2019-02-20T08:07:55.474Z,6.78
2019-02-20T08:10:26.003Z,6.78
2019-02-20T08:12:56.499Z,6.78
2019-02-20T08:15:27.061Z,6.86
2019-02-20T08:18:00.320Z,6.91
2019-02-20T08:20:30.896Z,6.92
2019-02-20T08:23:01.380Z,6.81
2019-02-20T08:25:31.947Z,6.87
2019-02-20T08:28:02.482Z,6.89
2019-02-20T08:30:33.101Z,6.77
2019-02-20T08:33:03.550Z,6.77
2019-02-20T08:35:34.048Z,6.91
2019-02-20T08:38:04.574Z,6.99
2019-02-20T08:40:38.143Z,6.96
2019-02-20T08:43:08.725Z,6.90
2019-02-20T08:45:39.254Z,6.94
2019-02-20T08:48:09.797Z,7.11
2019-02-20T08:50:40.278Z,7.06
2019-02-20T08:53:10.801Z,7.07
2019-02-20T08:55:41.314Z,7.09
2019-02-20T08:58:11.743Z,7.04
2019-02-20T09:00:42.269Z,7.13
2019-02-20T09:03:12.817Z,7.17
2019-02-20T09:05:43.330Z,7.09
2019-02-20T09:08:14.262Z,7.10
2019-02-20T09:10:44.779Z,7.11
2019-02-20T09:13:15.281Z,7.14
2019-02-20T09:15:48.340Z,6.97
2019-02-20T09:18:18.151Z,7.07
2019-02-20T09:20:48.644Z,7.22
2019-02-20T09:23:22.131Z,7.20
2019-02-20T09:25:53.409Z,7.08
2019-02-20T09:28:23.952Z,7.19
2019-02-20T09:30:54.525Z,7.15
2019-02-20T09:33:25.016Z,7.24
2019-02-20T09:35:55.600Z,7.21
2019-02-20T09:38:26.049Z,7.19
2019-02-20T09:40:56.643Z,7.29
2019-02-20T09:43:27.284Z,7.37
2019-02-20T09:45:57.806Z,7.25
2019-02-20T09:48:28.298Z,7.43
2019-02-20T09:50:58.865Z,7.42
2019-02-20T09:53:29.395Z,7.56
2019-02-20T09:55:59.946Z,7.51
2019-02-20T09:58:30.469Z,7.48
2019-02-20T10:01:02.748Z,7.51
2019-02-20T10:03:33.238Z,7.66
2019-02-20T10:11:22.778Z,7.51
2019-02-20T10:13:53.504Z,7.40
2019-02-20T10:16:24.021Z,7.72
2019-02-20T10:18:54.904Z,7.74
2019-02-20T10:21:25.501Z,7.58
2019-02-20T10:23:56.551Z,7.73
2019-02-20T10:26:27.144Z,7.71
2019-02-20T10:28:57.893Z,7.74
2019-02-20T10:31:28.370Z,7.93
2019-02-20T10:33:58.939Z,7.92
2019-02-20T10:36:29.901Z,8.00
2019-02-20T10:39:00.432Z,7.92
2019-02-20T10:41:30.960Z,7.92
2019-02-20T10:44:01.639Z,7.95
2019-02-20T10:46:32.159Z,7.86
2019-02-20T10:49:02.730Z,7.96
2019-02-20T10:51:33.301Z,7.80
2019-02-20T10:54:03.899Z,7.86
2019-02-20T10:56:34.499Z,7.76
2019-02-20T10:59:05.105Z,7.93
2019-02-20T11:01:35.645Z,7.98
2019-02-20T11:04:06.268Z,7.94
2019-02-20T11:06:36.775Z,7.90
2019-02-20T11:09:07.830Z,7.82
2019-02-20T11:11:38.384Z,7.83
2019-02-20T11:14:08.980Z,7.71
2019-02-20T11:16:39.609Z,7.77
2019-02-20T11:19:10.172Z,7.91
2019-02-20T11:21:40.686Z,8.05
2019-02-20T11:24:11.417Z,7.78
2019-02-20T11:26:50.462Z,7.92
2019-02-20T11:29:14.139Z,8.01
2019-02-20T11:31:44.687Z,7.85
2019-02-20T11:34:15.239Z,7.84
2019-02-20T11:36:45.732Z,7.96
2019-02-20T11:39:16.400Z,7.88
2019-02-20T11:41:46.944Z,7.89
2019-02-20T11:44:21.022Z,7.88
2019-02-20T11:46:49.760Z,7.99
2019-02-20T11:49:20.282Z,8.07
2019-02-20T11:51:50.765Z,8.17
2019-02-20T11:54:21.286Z,8.07
2019-02-20T11:56:51.825Z,7.99
2019-02-20T11:59:22.337Z,8.16
2019-02-20T12:01:53.363Z,8.23
2019-02-20T12:04:23.983Z,8.28
2019-02-20T12:06:54.465Z,8.28
2019-02-20T12:09:25.070Z,8.24
2019-02-20T12:11:55.820Z,8.35
2019-02-20T12:14:26.362Z,8.42
2019-02-20T12:16:56.911Z,8.47
2019-02-20T12:19:27.465Z,8.57
2019-02-20T12:21:58.029Z,8.63
2019-02-20T12:24:28.579Z,8.46
2019-02-20T12:26:59.297Z,8.69
2019-02-20T12:29:30.171Z,8.55
2019-02-20T12:32:00.694Z,8.57
2019-02-20T12:34:31.228Z,8.64
2019-02-20T12:37:01.812Z,8.67
2019-02-20T12:39:32.375Z,8.66
2019-02-20T12:42:02.941Z,8.80
2019-02-20T12:44:33.529Z,8.68
2019-02-20T12:47:04.081Z,8.76
2019-02-20T12:49:34.686Z,8.85
2019-02-20T12:52:05.182Z,8.89
2019-02-20T12:54:35.722Z,9.03
2019-02-20T12:57:06.248Z,9.12
2019-02-20T12:59:36.909Z,9.45
2019-02-20T13:02:07.791Z,9.49
2019-02-20T13:04:38.448Z,9.44
2019-02-20T13:07:08.969Z,9.22
2019-02-20T13:09:39.615Z,9.25
2019-02-20T13:12:10.099Z,9.24
2019-02-20T13:14:40.631Z,9.26
2019-02-20T13:17:11.201Z,9.16
2019-02-20T13:19:41.791Z,9.28
2019-02-20T13:22:12.292Z,9.28
2019-02-20T13:24:43.983Z,9.28
2019-02-20T13:27:22.576Z,9.39
2019-02-20T13:29:46.886Z,9.40
2019-02-20T13:32:23.270Z,9.63
2019-02-20T13:34:53.786Z,9.59
2019-02-20T13:37:25.130Z,9.90
2019-02-20T13:39:55.774Z,9.67
2019-02-20T13:42:26.351Z,9.62
2019-02-20T13:44:56.959Z,9.88
2019-02-20T13:47:27.525Z,9.87
2019-02-20T13:49:58.058Z,9.60
2019-02-20T13:52:30.420Z,9.37
2019-02-20T13:55:01.056Z,9.15
2019-02-20T13:57:31.621Z,9.12
2019-02-20T14:00:02.243Z,9.14
2019-02-20T14:02:32.785Z,9.31
2019-02-20T14:05:03.444Z,9.34
2019-02-20T14:07:34.086Z,9.38
2019-02-20T14:10:06.609Z,9.40
2019-02-20T14:12:37.617Z,9.42
2019-02-20T14:15:10.257Z,9.69
2019-02-20T14:17:40.860Z,9.79
2019-02-20T14:20:12.089Z,10.34
2019-02-20T14:22:43.162Z,10.48
2019-02-20T14:25:13.837Z,10.24
2019-02-20T14:27:44.422Z,10.43
2019-02-20T14:30:14.983Z,10.16
2019-02-20T14:32:46.886Z,9.94
2019-02-20T14:35:17.469Z,9.62
2019-02-20T14:37:48.046Z,9.49
2019-02-20T14:40:18.529Z,9.39
2019-02-20T14:42:49.000Z,9.50
2019-02-20T14:45:19.549Z,9.50
2019-02-20T14:47:50.027Z,9.38
2019-02-20T14:50:20.795Z,9.53
2019-02-20T14:52:51.305Z,9.75
2019-02-20T14:55:40.900Z,9.59
2019-02-20T14:58:11.528Z,9.73
2019-02-20T15:00:42.459Z,9.59
2019-02-20T15:03:12.986Z,9.69
2019-02-20T15:05:43.586Z,9.57
2019-02-20T15:08:14.106Z,9.74
2019-02-20T15:10:44.658Z,9.52
2019-02-20T15:13:15.175Z,9.34
2019-02-20T15:15:47.392Z,9.29
2019-02-20T15:18:18.156Z,9.17
2019-02-20T15:20:48.900Z,9.21
2019-02-20T15:23:19.364Z,9.13
2019-02-20T15:25:49.874Z,9.19
2019-02-20T15:28:20.732Z,9.25
2019-02-20T15:30:51.211Z,9.26
2019-02-20T15:33:23.425Z,9.27
2019-02-20T15:35:54.133Z,9.20
2019-02-20T15:38:24.662Z,9.22
2019-02-20T15:40:55.176Z,9.09
2019-02-20T15:43:25.710Z,9.07
2019-02-20T15:45:56.214Z,9.14
2019-02-20T15:48:26.848Z,9.05
2019-02-20T15:50:57.444Z,9.00
2019-02-20T15:53:27.947Z,9.11
2019-02-20T15:55:58.546Z,9.04
2019-02-20T15:58:29.094Z,9.01
2019-02-20T16:00:59.655Z,9.03
2019-02-20T16:03:30.123Z,8.97
2019-02-20T16:06:00.834Z,9.00
2019-02-20T16:08:31.443Z,9.00
2019-02-20T16:11:02.267Z,9.03
2019-02-20T16:13:32.857Z,8.95
2019-02-20T16:16:03.426Z,8.97
2019-02-20T16:18:33.969Z,9.03
2019-02-20T16:21:05.111Z,9.07
2019-02-20T16:23:36.303Z,9.02
2019-02-20T16:26:06.898Z,9.00
2019-02-20T16:28:37.527Z,8.96
2019-02-20T16:31:07.994Z,9.06
2019-02-20T16:33:38.814Z,8.97
2019-02-20T16:36:09.411Z,8.91
2019-02-20T16:38:40.204Z,8.90
2019-02-20T16:41:10.774Z,8.89
2019-02-20T16:43:41.333Z,8.83
2019-02-20T16:46:11.972Z,8.83
2019-02-20T16:48:43.214Z,8.78
2019-02-20T16:51:13.841Z,8.69
2019-02-20T16:53:44.556Z,8.65
2019-02-20T16:56:15.209Z,8.62
2019-02-20T16:58:45.775Z,8.63
2019-02-20T17:01:17.790Z,8.66
2019-02-20T17:03:48.339Z,8.59
2019-02-20T17:06:19.398Z,8.60
2019-02-20T17:08:50.217Z,8.65
2019-02-20T17:11:20.834Z,8.62
2019-02-20T17:13:51.319Z,8.58
2019-02-20T17:16:22.485Z,8.62
2019-02-20T17:18:53.168Z,8.70
2019-02-20T17:21:23.682Z,8.67
2019-02-20T17:23:54.233Z,8.66
2019-02-20T17:26:24.723Z,8.60
2019-02-20T17:28:55.207Z,8.67
2019-02-20T17:31:25.739Z,8.65
2019-02-20T17:33:56.584Z,8.66
2019-02-20T17:36:27.110Z,8.67
2019-02-20T17:38:57.588Z,8.55
2019-02-20T17:41:28.094Z,8.46
2019-02-20T17:43:58.561Z,8.50
2019-02-20T17:46:29.029Z,8.50
2019-02-20T17:48:59.578Z,8.43
2019-02-20T17:51:30.298Z,8.53
2019-02-20T17:54:00.796Z,8.52
2019-02-20T17:56:31.301Z,8.51
2019-02-20T17:59:01.840Z,8.49
2019-02-20T18:01:32.384Z,8.48
2019-02-20T18:04:02.929Z,8.59
2019-02-20T18:06:33.441Z,8.59
2019-02-20T18:09:04.504Z,8.58
2019-02-20T18:11:34.984Z,8.69
2019-02-20T18:14:05.492Z,8.69
2019-02-20T18:16:35.956Z,8.71
2019-02-20T18:19:06.453Z,8.71
2019-02-20T18:21:37.003Z,8.71
2019-02-20T18:24:07.598Z,8.73
2019-02-20T18:26:38.091Z,8.70
2019-02-20T18:29:08.603Z,8.70
2019-02-20T18:31:39.025Z,8.86
2019-02-20T18:34:09.553Z,8.74
2019-02-20T18:36:40.047Z,8.83
2019-02-20T18:39:10.623Z,8.76
2019-02-20T18:41:41.073Z,8.78
2019-02-20T18:44:11.654Z,8.73
2019-02-20T18:46:42.157Z,8.66
2019-02-20T18:49:12.665Z,8.74
2019-02-20T18:51:43.191Z,8.70
2019-02-20T18:54:13.748Z,8.69
2019-02-20T18:56:44.159Z,8.68
2019-02-20T18:59:14.640Z,8.71
2019-02-20T19:01:45.092Z,8.68
2019-02-20T19:04:15.601Z,8.74
2019-02-20T19:06:46.156Z,8.63
2019-02-20T19:09:24.534Z,8.71
2019-02-20T19:12:46.503Z,8.77
2019-02-20T19:16:04.762Z,8.68
2019-02-20T19:19:09.617Z,8.69
2019-02-20T19:22:26.756Z,8.69
2019-02-20T19:25:46.534Z,8.62
2019-02-20T19:29:15.563Z,8.76
2019-02-20T19:32:41.455Z,8.70
2019-02-20T19:36:03.377Z,8.75
2019-02-20T19:39:37.761Z,8.70
2019-02-20T19:43:02.363Z,8.70
2019-02-20T19:46:31.013Z,8.76
2019-02-20T19:50:10.899Z,8.78
2019-02-20T19:53:29.431Z,8.83
2019-02-20T19:56:31.703Z,8.81
2019-02-20T20:00:16.856Z,8.84
2019-02-20T20:03:33.575Z,8.78
2019-02-20T20:07:04.098Z,8.74
2019-02-20T20:10:22.429Z,8.70
2019-02-20T20:13:35.481Z,8.67
2019-02-20T20:17:04.624Z,8.75
2019-02-20T20:20:12.715Z,8.76
2019-02-20T20:23:49.578Z,8.68
2019-02-20T20:27:25.049Z,8.70
2019-02-20T20:31:13.692Z,8.67
2019-02-20T20:35:10.446Z,8.66
2019-02-20T20:38:46.652Z,8.59
2019-02-20T20:42:36.605Z,8.53
2019-02-20T20:46:25.410Z,8.61
2019-02-20T20:50:01.031Z,8.60
2019-02-20T20:52:56.093Z,8.57
2019-02-20T20:56:35.858Z,8.56
2019-02-20T20:59:44.459Z,8.54
2019-02-20T21:02:42.434Z,8.57
2019-02-20T21:05:53.029Z,8.63
2019-02-20T21:09:04.176Z,8.55
2019-02-20T21:12:39.058Z,8.53
2019-02-20T21:15:47.690Z,8.56
2019-02-20T21:18:58.844Z,8.55
2019-02-20T21:22:19.494Z,8.61
2019-02-20T21:25:51.794Z,8.62
2019-02-20T21:29:11.156Z,8.57
2019-02-20T21:33:00.343Z,8.58
2019-02-20T21:35:52.262Z,8.59
2019-02-20T21:39:33.882Z,8.66
2019-02-20T21:42:43.836Z,8.63
2019-02-20T21:46:02.768Z,8.60
2019-02-20T21:49:07.393Z,8.63
2019-02-20T21:52:49.657Z,8.69
2019-02-20T21:55:58.453Z,8.67
2019-02-20T21:58:51.017Z,8.69
2019-02-20T22:02:06.184Z,8.69
2019-02-20T22:05:42.114Z,8.66
2019-02-20T22:27:52.951Z,8.63
2019-02-20T22:31:19.921Z,8.55
2019-02-20T22:34:39.117Z,8.59
2019-02-20T22:37:56.059Z,8.60
2019-02-20T22:41:03.430Z,8.59
2019-02-20T22:44:07.193Z,8.56
2019-02-20T22:47:11.980Z,8.54
2019-02-20T22:50:43.157Z,8.50
2019-02-20T22:54:14.455Z,8.57
2019-02-20T22:57:34.528Z,8.53
2019-02-20T23:01:01.410Z,8.59
2019-02-20T23:04:16.922Z,8.45
2019-02-20T23:07:59.246Z,8.50
2019-02-20T23:11:29.266Z,8.49
2019-02-20T23:14:45.535Z,8.50
2019-02-20T23:17:16.019Z,8.43
2019-02-20T23:19:46.523Z,8.42
2019-02-20T23:22:17.116Z,8.39
2019-02-20T23:24:47.677Z,8.40
2019-02-20T23:27:18.217Z,8.41
2019-02-20T23:29:48.962Z,8.35
2019-02-20T23:32:19.487Z,8.44
2019-02-20T23:34:50.047Z,8.42
2019-02-20T23:37:20.674Z,8.39
2019-02-20T23:39:51.202Z,8.42
2019-02-20T23:42:21.894Z,8.34
2019-02-20T23:44:52.482Z,8.32
2019-02-20T23:47:23.100Z,8.27
2019-02-20T23:49:53.653Z,8.26
2019-02-20T23:52:24.197Z,8.22
2019-02-20T23:54:54.739Z,8.22
2019-02-20T23:57:25.448Z,8.20
2019-02-20T23:59:55.980Z,8.18
